createdAt,value
2022-09-07T00:02:30.302Z,3.71
2022-09-07T00:07:37.238Z,3.34
2022-09-07T00:12:44.390Z,3.54
2022-09-07T00:17:51.432Z,4.56
2022-09-07T00:22:58.490Z,7.81
2022-09-07T00:28:06.909Z,6.05
2022-09-07T00:33:13.998Z,6.56
2022-09-07T00:38:21.222Z,17.48
2022-09-07T00:43:28.173Z,12.31
2022-09-07T00:48:35.377Z,7.19
2022-09-07T00:53:42.334Z,6.41
2022-09-07T00:58:49.551Z,6.03
2022-09-07T01:03:56.517Z,4.78
2022-09-07T01:09:03.763Z,3.83
2022-09-07T01:14:10.736Z,5.07
2022-09-07T01:19:17.818Z,12.24
2022-09-07T01:24:25.075Z,4.40
2022-09-07T01:29:32.046Z,4.38
2022-09-07T01:34:39.266Z,4.27
2022-09-07T01:39:46.253Z,2.85
2022-09-07T01:44:53.420Z,2.09
2022-09-07T01:50:00.457Z,2.27
2022-09-07T01:55:07.492Z,2.72
2022-09-07T02:00:14.452Z,3.02
2022-09-07T02:05:21.524Z,2.20
2022-09-07T02:10:28.596Z,3.33
2022-09-07T02:15:35.763Z,3.08
2022-09-07T02:20:42.716Z,3.08
2022-09-07T02:25:49.824Z,5.00
2022-09-07T02:30:56.801Z,3.53
2022-09-07T02:36:03.949Z,3.95
2022-09-07T02:41:10.897Z,15.78
2022-09-07T02:46:18.081Z,7.60
2022-09-07T02:51:25.042Z,8.97
2022-09-07T02:56:32.191Z,16.21
2022-09-07T03:01:39.198Z,12.07
2022-09-07T03:06:46.146Z,5.80
2022-09-07T03:11:53.098Z,7.06
2022-09-07T03:17:00.321Z,5.80
2022-09-07T03:22:07.316Z,5.54
2022-09-07T03:27:14.548Z,6.32
2022-09-07T03:32:21.476Z,4.91
2022-09-07T03:37:28.553Z,6.19
2022-09-07T03:42:35.593Z,9.69
2022-09-07T03:47:42.902Z,7.43
2022-09-07T03:52:49.950Z,6.49
2022-09-07T03:57:57.088Z,7.16
2022-09-07T04:03:04.083Z,9.12
2022-09-07T04:08:11.171Z,17.99
2022-09-07T04:13:18.133Z,11.88
2022-09-07T04:18:25.218Z,13.81
2022-09-07T04:23:32.369Z,19.10
2022-09-07T04:28:39.448Z,14.53
2022-09-07T04:33:46.693Z,11.82
2022-09-07T04:38:56.682Z,13.53
2022-09-07T04:44:03.856Z,19.71
2022-09-07T04:49:10.837Z,24.46
2022-09-07T04:54:18.015Z,17.15
2022-09-07T04:59:24.984Z,13.04
2022-09-07T05:04:32.033Z,9.58
2022-09-07T05:09:39.074Z,10.15
2022-09-07T05:14:46.201Z,12.83
2022-09-07T05:19:53.174Z,18.03
2022-09-07T05:25:00.225Z,11.81
2022-09-07T05:30:07.519Z,13.65
2022-09-07T05:35:14.422Z,31.17
2022-09-07T05:40:21.578Z,13.48
2022-09-07T05:45:28.689Z,30.82
2022-09-07T05:50:35.694Z,13.15
2022-09-07T05:55:42.722Z,12.90
2022-09-07T06:00:49.690Z,15.09
2022-09-07T06:05:56.865Z,18.49
2022-09-07T06:11:03.805Z,13.74
2022-09-07T06:16:10.831Z,16.93
2022-09-07T06:21:17.744Z,11.99
2022-09-07T06:26:24.863Z,25.25
2022-09-07T06:31:31.966Z,15.80
2022-09-07T06:36:38.855Z,25.52
2022-09-07T06:42:00.977Z,13.99
2022-09-07T06:51:59.252Z,12.93
2022-09-07T06:57:06.583Z,13.94
2022-09-07T07:02:13.591Z,12.98
2022-09-07T07:07:20.671Z,10.38
2022-09-07T07:17:32.049Z,10.71
2022-09-07T07:22:46.562Z,11.34
2022-09-07T07:27:45.595Z,9.33
2022-09-07T07:32:52.720Z,11.23
2022-09-07T07:43:07.653Z,4.71
2022-09-07T07:48:12.686Z,5.58
2022-09-07T07:53:42.546Z,5.22
2022-09-07T07:58:26.656Z,4.82
2022-09-07T08:03:33.625Z,3.20
2022-09-07T08:08:40.836Z,3.03
2022-09-07T08:13:49.124Z,2.25
2022-09-07T08:18:56.266Z,2.28
2022-09-07T08:24:03.252Z,2.19
2022-09-07T08:29:10.378Z,2.66
2022-09-07T08:34:17.322Z,2.97
2022-09-07T08:39:24.327Z,2.06
2022-09-07T08:44:31.533Z,3.08
2022-09-07T08:49:38.517Z,2.44
2022-09-07T08:54:45.649Z,2.51
2022-09-07T08:59:52.731Z,2.75
2022-09-07T09:05:16.634Z,2.15
2022-09-07T09:10:06.348Z,3.04
2022-09-07T09:15:13.277Z,3.25
2022-09-07T09:20:20.198Z,2.64
2022-09-07T09:25:27.177Z,5.36
2022-09-07T09:30:34.338Z,4.10
2022-09-07T09:35:41.918Z,3.73
2022-09-07T09:40:49.072Z,4.51
2022-09-07T09:46:14.626Z,4.42
2022-09-07T09:56:16.617Z,3.72
2022-09-07T10:01:22.347Z,4.22
2022-09-07T10:06:24.517Z,2.76
2022-09-07T10:11:21.491Z,3.43
2022-09-07T10:16:32.051Z,2.05
2022-09-07T10:21:29.014Z,3.41
2022-09-07T10:26:40.402Z,3.10
2022-09-07T10:31:37.520Z,5.44
2022-09-07T10:36:50.131Z,3.94
2022-09-07T10:41:47.105Z,2.34
2022-09-07T10:46:57.762Z,2.22
2022-09-07T10:52:00.940Z,2.65
2022-09-07T10:57:08.032Z,2.35
2022-09-07T11:02:15.128Z,1.95
2022-09-07T11:07:22.042Z,2.34
2022-09-07T11:12:39.212Z,3.03
2022-09-07T11:17:29.834Z,1.78
2022-09-07T11:22:37.026Z,2.07
2022-09-07T11:27:44.101Z,3.65
2022-09-07T11:32:50.991Z,1.88
2022-09-07T11:37:58.060Z,1.80
2022-09-07T11:43:11.544Z,1.97
2022-09-07T11:48:06.551Z,2.16
2022-09-07T11:53:11.564Z,1.81
2022-09-07T11:58:21.559Z,1.94
2022-09-07T12:03:37.286Z,1.79
2022-09-07T12:08:34.407Z,2.12
2022-09-07T12:13:34.501Z,1.51
2022-09-07T12:18:41.591Z,3.63
2022-09-07T12:23:48.599Z,3.42
2022-09-07T12:28:55.680Z,1.38
2022-09-07T12:34:02.658Z,1.56
2022-09-07T12:39:09.806Z,0.76
2022-09-07T12:44:16.808Z,0.61
2022-09-07T12:49:26.959Z,0.85
2022-09-07T12:54:23.882Z,3.54
2022-09-07T12:59:35.448Z,0.79
2022-09-07T13:04:32.583Z,1.74
2022-09-07T13:09:41.841Z,1.27
2022-09-07T13:14:48.761Z,1.65
2022-09-07T13:19:55.759Z,1.15
2022-09-07T13:25:02.731Z,3.40
2022-09-07T13:30:09.857Z,1.39
2022-09-07T13:35:16.892Z,1.58
2022-09-07T13:40:23.953Z,1.88
2022-09-07T13:45:31.057Z,0.98
2022-09-07T13:50:38.003Z,1.62
2022-09-07T13:55:45.045Z,0.98
2022-09-07T14:00:52.009Z,0.99
2022-09-07T14:06:03.330Z,2.39
2022-09-07T14:11:00.259Z,1.08
2022-09-07T14:16:09.699Z,1.44
2022-09-07T14:21:16.564Z,1.69
2022-09-07T14:26:23.527Z,1.64
2022-09-07T14:31:30.447Z,1.39
2022-09-07T14:36:44.847Z,1.30
2022-09-07T14:41:44.129Z,1.78
2022-09-07T14:46:56.381Z,3.40
2022-09-07T14:51:57.673Z,3.31
2022-09-07T14:57:04.582Z,3.33
2022-09-07T15:02:11.615Z,2.14
2022-09-07T15:07:18.596Z,2.26
2022-09-07T15:17:42.940Z,1.43
2022-09-07T15:22:41.912Z,2.56
2022-09-07T15:27:48.804Z,2.66
2022-09-07T15:32:57.794Z,4.25
2022-09-07T15:43:20.091Z,2.15
2022-09-07T15:48:16.929Z,2.46
2022-09-07T15:58:30.477Z,1.44
2022-09-07T16:03:37.561Z,2.71
2022-09-07T16:08:45.615Z,3.10
2022-09-07T16:13:53.174Z,1.13
2022-09-07T16:19:01.061Z,3.40
2022-09-07T16:24:03.548Z,2.16
2022-09-07T16:29:11.207Z,1.29
2022-09-07T16:34:18.240Z,1.62
2022-09-07T16:39:28.328Z,2.59
2022-09-07T16:44:35.143Z,2.27
2022-09-07T16:49:42.491Z,3.64
2022-09-07T16:54:49.705Z,1.63
2022-09-07T16:59:56.188Z,2.40
2022-09-07T17:05:07.717Z,1.82
2022-09-07T17:10:12.704Z,2.90
2022-09-07T17:15:20.977Z,2.57
2022-09-07T17:20:28.297Z,0.87
2022-09-07T17:25:33.893Z,5.18
2022-09-07T17:30:41.009Z,2.69
2022-09-07T17:35:51.373Z,4.36
2022-09-07T17:40:48.337Z,2.53
2022-09-07T17:46:00.520Z,2.58
2022-09-07T17:50:57.434Z,2.02
2022-09-07T17:56:04.614Z,4.10
2022-09-07T18:01:13.446Z,2.36
2022-09-07T18:06:20.628Z,3.91
2022-09-07T18:11:48.033Z,2.57
2022-09-07T18:16:34.484Z,1.80
2022-09-07T18:21:41.364Z,4.46
2022-09-07T18:26:51.076Z,2.37
2022-09-07T18:31:55.742Z,1.43
2022-09-07T18:37:02.836Z,3.50
2022-09-07T18:42:09.835Z,4.63
2022-09-07T18:47:22.261Z,3.78
2022-09-07T18:52:52.263Z,4.76
2022-09-07T18:57:30.035Z,2.27
2022-09-07T19:02:37.160Z,2.99
2022-09-07T19:07:43.890Z,3.97
2022-09-07T19:12:50.894Z,4.05
2022-09-07T19:17:57.910Z,2.67
2022-09-07T19:23:05.042Z,3.03
2022-09-07T19:28:12.152Z,2.94
2022-09-07T19:33:19.086Z,3.32
2022-09-07T19:38:26.185Z,4.58
2022-09-07T19:43:33.371Z,4.32
2022-09-07T19:48:40.471Z,4.31
2022-09-07T19:53:47.443Z,6.63
2022-09-07T19:58:54.437Z,4.18
2022-09-07T20:04:01.615Z,5.09
2022-09-07T20:09:08.715Z,6.71
2022-09-07T20:14:15.817Z,6.09
2022-09-07T20:19:22.719Z,4.45
2022-09-07T20:24:30.116Z,11.60
2022-09-07T20:29:37.041Z,13.78
2022-09-07T20:34:44.141Z,8.69
2022-09-07T20:39:51.088Z,6.75
2022-09-07T20:44:58.227Z,7.28
2022-09-07T20:50:05.175Z,3.35
2022-09-07T20:55:12.189Z,8.66
2022-09-07T21:00:19.151Z,4.59
2022-09-07T21:05:26.221Z,5.30
2022-09-07T21:10:33.168Z,5.77
2022-09-07T21:15:40.184Z,6.54
2022-09-07T21:21:04.258Z,3.08
2022-09-07T21:25:53.678Z,2.70
2022-09-07T21:31:01.022Z,4.32
2022-09-07T21:36:09.229Z,4.41
2022-09-07T21:41:16.354Z,5.02
2022-09-07T21:46:23.293Z,4.61
2022-09-07T21:56:43.139Z,4.49
2022-09-07T22:01:46.388Z,4.56
2022-09-07T22:06:53.253Z,3.41
2022-09-07T22:12:00.321Z,2.87
2022-09-07T22:17:12.288Z,3.21
2022-09-07T22:22:09.435Z,3.16
2022-09-07T22:27:16.836Z,2.37
2022-09-07T22:32:23.979Z,2.20
2022-09-07T22:37:30.976Z,3.88
2022-09-07T22:42:38.057Z,3.90
2022-09-07T22:47:45.069Z,2.71
2022-09-07T22:52:52.443Z,2.07
2022-09-07T22:57:59.506Z,2.04
2022-09-07T23:03:06.719Z,1.91
2022-09-07T23:08:13.723Z,2.58
2022-09-07T23:13:20.753Z,1.85
2022-09-07T23:18:27.679Z,3.00
2022-09-07T23:23:34.811Z,2.67
2022-09-07T23:28:41.755Z,2.01
2022-09-07T23:33:48.845Z,2.60
2022-09-07T23:38:55.801Z,2.81
2022-09-07T23:44:02.856Z,2.26
2022-09-07T23:49:09.762Z,2.61
2022-09-07T23:54:16.788Z,2.76
2022-09-07T23:59:23.811Z,2.19
